Time;durP1;ratioP1;P1;durP2;ratioP2;P2;SDS_P1;SDS_P2;PMS_P1;PMS_P2;Temp;Humidity;BMP_temperature;BMP_pressure;BME280_temperature;BME280_humidity;BME280_pressure;Samples;Min_cycle;Max_cycle;Signal;HPM_P1;HPM_P2
2023/05/08 00:03:58;;;;;;;12.07;7.70;;;;;12.70;96649.00;;;;8306167;28;22033;-68
2023/05/08 00:08:01;;;;;;;11.85;7.93;;;;;12.70;96648.00;;;;8311050;28;20226;-67
2023/05/08 00:12:06;;;;;;;12.82;8.27;;;;;12.60;96659.00;;;;8313463;28;20231;-70
2023/05/08 00:16:10;;;;;;;11.00;8.40;;;;;12.60;96655.00;;;;8316089;28;21092;-67
2023/05/08 00:20:13;;;;;;;11.60;8.27;;;;;12.50;96657.00;;;;8316198;28;20199;-67
2023/05/08 00:24:17;;;;;;;10.27;7.82;;;;;12.40;96657.00;;;;8312261;28;20204;-69
2023/05/08 00:28:27;;;;;;;11.05;8.13;;;;;12.40;96656.00;;;;8305496;28;20208;-67
2023/05/08 00:32:31;;;;;;;10.32;7.90;;;;;12.30;96650.00;;;;8309523;28;20200;-68
2023/05/08 00:36:34;;;;;;;11.52;8.25;;;;;12.30;96661.00;;;;8313516;28;20232;-67
2023/05/08 00:40:39;;;;;;;12.35;8.48;;;;;12.20;96662.00;;;;8319494;28;20238;-67
2023/05/08 00:44:45;;;;;;;11.55;8.65;;;;;12.10;96659.00;;;;8298302;28;20212;-68
2023/05/08 00:48:53;;;;;;;12.00;8.52;;;;;12.10;96672.00;;;;8303809;28;20193;-68
2023/05/08 00:52:58;;;;;;;11.93;8.38;;;;;12.10;96680.00;;;;8323162;28;20201;-68
2023/05/08 00:57:06;;;;;;;13.52;8.13;;;;;12.00;96676.00;;;;8312491;28;20223;-67
2023/05/08 01:01:14;;;;;;;12.88;8.93;;;;;12.00;96674.00;;;;8320678;28;20305;-67
2023/05/08 01:05:18;;;;;;;10.80;7.38;;;;;11.90;96676.00;;;;8319769;28;20238;-67
2023/05/08 01:09:21;;;;;;;11.05;7.78;;;;;11.90;96687.00;;;;8319711;28;20194;-68
2023/05/08 01:13:42;;;;;;;15.68;8.20;;;;;11.80;96690.00;;;;8317673;28;20221;-67
2023/05/08 01:17:58;;;;;;;12.25;8.25;;;;;11.80;96688.00;;;;8318804;28;20229;-67
2023/05/08 01:22:15;;;;;;;12.65;8.98;;;;;11.70;96687.00;;;;8317389;28;20570;-67
2023/05/08 01:26:49;;;;;;;15.10;8.98;;;;;11.60;96696.00;;;;8318332;28;20281;-67
2023/05/08 01:31:03;;;;;;;12.77;8.48;;;;;11.60;96696.00;;;;8304574;28;20205;-66
2023/05/08 01:35:17;;;;;;;13.02;9.20;;;;;11.70;96705.00;;;;8316672;28;20229;-68
2023/05/08 01:39:23;;;;;;;12.50;8.75;;;;;11.60;96702.00;;;;8319543;28;20203;-69
2023/05/08 01:43:32;;;;;;;13.73;8.90;;;;;11.60;96705.00;;;;8313747;28;20195;-67
2023/05/08 01:47:38;;;;;;;13.00;8.70;;;;;11.60;96713.00;;;;8316199;28;20206;-68
2023/05/08 01:51:50;;;;;;;16.02;9.55;;;;;11.60;96710.00;;;;8314890;28;20242;-68
2023/05/08 01:56:00;;;;;;;14.63;9.20;;;;;11.50;96714.00;;;;8319235;28;20701;-68
2023/05/08 02:00:06;;;;;;;12.02;8.15;;;;;11.50;96719.00;;;;8315274;28;20707;-67
2023/05/08 02:04:11;;;;;;;11.48;8.23;;;;;11.50;96723.00;;;;8317629;28;20338;-68
2023/05/08 02:08:21;;;;;;;14.27;9.63;;;;;11.40;96722.00;;;;8322930;28;20198;-68
2023/05/08 02:12:25;;;;;;;15.43;9.05;;;;;11.30;96721.00;;;;8304853;28;20202;-69
2023/05/08 02:16:30;;;;;;;14.60;10.00;;;;;11.20;96714.00;;;;8308356;28;20317;-67
2023/05/08 02:20:35;;;;;;;14.27;9.57;;;;;11.20;96726.00;;;;8309259;28;20732;-68
2023/05/08 02:24:41;;;;;;;16.95;10.60;;;;;11.10;96731.00;;;;8315739;28;20216;-67
2023/05/08 02:28:46;;;;;;;12.55;9.25;;;;;11.10;96730.00;;;;8315704;28;20202;-67
2023/05/08 02:32:53;;;;;;;13.83;9.77;;;;;11.00;96734.00;;;;8301961;28;20198;-66
2023/05/08 02:37:03;;;;;;;13.00;9.52;;;;;10.90;96739.00;;;;8314498;28;20953;-66
2023/05/08 02:41:10;;;;;;;17.15;10.25;;;;;10.90;96747.00;;;;8311430;28;20721;-67
2023/05/08 02:45:17;;;;;;;14.70;9.57;;;;;10.80;96743.00;;;;8312979;28;20201;-66
2023/05/08 02:49:29;;;;;;;16.50;11.07;;;;;10.80;96752.00;;;;8312801;28;20251;-69
2023/05/08 02:53:40;;;;;;;16.63;11.30;;;;;10.70;96744.00;;;;8315517;28;20259;-66
2023/05/08 02:57:57;;;;;;;15.43;10.30;;;;;10.60;96748.00;;;;8311591;28;20864;-65
2023/05/08 03:02:13;;;;;;;15.13;9.70;;;;;10.60;96750.00;;;;8340329;22;20231;-67
2023/05/08 03:06:20;;;;;;;14.97;9.97;;;;;10.60;96747.00;;;;8333597;28;20291;-65
2023/05/08 03:10:29;;;;;;;17.45;10.55;;;;;10.50;96758.00;;;;8330851;28;20198;-67
2023/05/08 03:14:41;;;;;;;14.20;9.90;;;;;10.40;96760.00;;;;8327042;28;20289;-66
2023/05/08 03:18:53;;;;;;;16.87;9.70;;;;;10.40;96750.00;;;;8322455;28;20218;-66
2023/05/08 03:22:56;;;;;;;16.27;10.43;;;;;10.30;96753.00;;;;8340748;28;20251;-67
2023/05/08 03:27:06;;;;;;;15.25;10.15;;;;;10.30;96760.00;;;;8324291;28;20197;-67
2023/05/08 03:31:12;;;;;;;17.80;10.17;;;;;10.30;96754.00;;;;8329939;28;20197;-69
2023/05/08 03:35:18;;;;;;;16.87;10.67;;;;;10.30;96753.00;;;;8319073;28;20199;-66
2023/05/08 03:39:21;;;;;;;15.00;9.20;;;;;10.20;96750.00;;;;8320922;28;20197;-70
2023/05/08 03:43:27;;;;;;;20.17;11.50;;;;;10.20;96751.00;;;;8323207;28;20203;-67
2023/05/08 03:47:35;;;;;;;16.20;10.27;;;;;10.20;96761.00;;;;8324624;28;20192;-67
2023/05/08 03:51:39;;;;;;;17.52;11.43;;;;;10.20;96760.00;;;;8325628;28;20549;-69
2023/05/08 03:55:42;;;;;;;14.37;10.10;;;;;10.20;96769.00;;;;8329793;28;20229;-67
2023/05/08 03:59:52;;;;;;;15.73;9.87;;;;;10.20;96770.00;;;;8334581;28;20197;-67
2023/05/08 04:04:04;;;;;;;20.43;11.63;;;;;10.20;96764.00;;;;8310267;28;20230;-67
2023/05/08 04:08:17;;;;;;;14.67;10.17;;;;;10.10;96766.00;;;;8297773;28;20288;-66
2023/05/08 04:12:22;;;;;;;18.13;11.55;;;;;10.10;96770.00;;;;8307923;28;20564;-67
2023/05/08 04:16:28;;;;;;;15.10;10.30;;;;;10.10;96770.00;;;;8312099;28;20221;-69
2023/05/08 04:20:33;;;;;;;16.20;10.73;;;;;10.10;96772.00;;;;8305956;28;20206;-69
2023/05/08 04:24:44;;;;;;;16.97;11.43;;;;;10.10;96784.00;;;;8298874;28;20248;-67
2023/05/08 04:28:47;;;;;;;14.73;10.03;;;;;10.10;96778.00;;;;8279963;28;20198;-68
2023/05/08 04:32:51;;;;;;;15.95;11.18;;;;;10.10;96786.00;;;;8299741;28;20200;-67
2023/05/08 04:36:55;;;;;;;18.07;11.33;;;;;10.10;96786.00;;;;8314348;28;20224;-67
2023/05/08 04:41:01;;;;;;;19.50;10.73;;;;;10.20;96793.00;;;;8305855;28;20556;-67
2023/05/08 04:45:06;;;;;;;16.73;11.10;;;;;10.20;96793.00;;;;8302337;28;20221;-67
2023/05/08 04:49:09;;;;;;;15.63;10.57;;;;;10.30;96794.00;;;;8298638;28;20229;-68
2023/05/08 04:53:17;;;;;;;16.77;11.33;;;;;10.30;96802.00;;;;8340899;28;20639;-69
2023/05/08 04:57:22;;;;;;;17.85;11.65;;;;;10.30;96808.00;;;;8345047;28;20226;-68
2023/05/08 05:01:27;;;;;;;15.83;11.47;;;;;10.30;96815.00;;;;8339370;28;20193;-69
2023/05/08 05:05:34;;;;;;;18.13;13.37;;;;;10.40;96818.00;;;;8337525;28;20283;-67
2023/05/08 05:09:45;;;;;;;17.10;9.90;;;;;10.50;96817.00;;;;8338751;28;20281;-67
2023/05/08 05:13:48;;;;;;;16.45;10.23;;;;;10.60;96815.00;;;;8340266;28;20254;-71
2023/05/08 05:17:54;;;;;;;16.40;11.00;;;;;10.60;96816.00;;;;8329927;28;20264;-68
2023/05/08 05:22:00;;;;;;;20.43;11.67;;;;;10.80;96818.00;;;;8333862;28;20201;-66
2023/05/08 05:26:05;;;;;;;13.02;9.20;;;;;10.80;96815.00;;;;8339561;28;20662;-69
2023/05/08 05:30:12;;;;;;;17.45;10.55;;;;;10.90;96825.00;;;;8342251;28;20194;-68
2023/05/08 05:34:20;;;;;;;16.90;10.70;;;;;10.90;96823.00;;;;8329961;28;20236;-68
2023/05/08 05:38:24;;;;;;;17.45;11.57;;;;;11.00;96820.00;;;;8326652;28;20230;-69
2023/05/08 05:42:28;;;;;;;16.75;10.85;;;;;11.20;96819.00;;;;8336160;28;20209;-69
2023/05/08 05:46:32;;;;;;;14.52;10.90;;;;;11.40;96821.00;;;;8337541;28;20301;-67
2023/05/08 05:50:36;;;;;;;15.25;11.70;;;;;11.40;96827.00;;;;8329591;28;20293;-68
2023/05/08 05:54:40;;;;;;;17.25;11.70;;;;;11.50;96822.00;;;;8338646;28;20713;-70
2023/05/08 05:58:48;;;;;;;15.38;10.73;;;;;11.70;96832.00;;;;8334119;28;20694;-68
2023/05/08 06:02:54;;;;;;;16.15;10.93;;;;;11.90;96836.00;;;;8335049;28;20750;-69
2023/05/08 06:07:02;;;;;;;15.85;9.85;;;;;12.00;96843.00;;;;8338854;28;20256;-70
2023/05/08 06:11:09;;;;;;;14.63;10.88;;;;;12.30;96840.00;;;;8335107;28;20593;-68
2023/05/08 06:15:20;;;;;;;19.30;9.75;;;;;12.50;96839.00;;;;8339292;28;20794;-68
2023/05/08 06:19:24;;;;;;;16.50;10.85;;;;;12.60;96842.00;;;;8320382;28;20235;-68
2023/05/08 06:23:28;;;;;;;14.75;10.15;;;;;12.60;96838.00;;;;8304813;28;20230;-68
2023/05/08 06:27:31;;;;;;;16.50;10.80;;;;;12.70;96841.00;;;;8286374;28;20223;-67
2023/05/08 06:31:36;;;;;;;22.45;11.38;;;;;13.00;96841.00;;;;8308852;28;20200;-69
2023/05/08 06:35:39;;;;;;;13.77;10.00;;;;;13.50;96846.00;;;;8304281;28;20194;-69
2023/05/08 06:39:42;;;;;;;18.90;10.77;;;;;13.80;96850.00;;;;8314948;28;20879;-68
2023/05/08 06:43:45;;;;;;;15.48;10.60;;;;;14.00;96852.00;;;;8295487;28;20196;-68
2023/05/08 06:47:50;;;;;;;15.73;10.02;;;;;14.70;96862.00;;;;8280998;28;20209;-69
2023/05/08 06:51:54;;;;;;;17.08;10.65;;;;;15.40;96853.00;;;;8301044;28;20203;-68
2023/05/08 06:55:59;;;;;;;14.10;9.82;;;;;15.50;96853.00;;;;8298975;28;20196;-70
2023/05/08 07:00:09;;;;;;;16.70;10.25;;;;;15.60;96852.00;;;;8297257;28;20221;-71
2023/05/08 07:04:15;;;;;;;13.88;9.27;;;;;16.10;96855.00;;;;8296973;28;20851;-70
2023/05/08 07:08:20;;;;;;;19.00;9.75;;;;;16.60;96857.00;;;;8302226;28;20233;-69
2023/05/08 07:12:25;;;;;;;17.58;10.30;;;;;16.50;96855.00;;;;8304918;28;20910;-68
2023/05/08 07:16:28;;;;;;;14.85;10.23;;;;;16.40;96856.00;;;;8292575;28;20897;-69
2023/05/08 07:20:36;;;;;;;16.95;10.70;;;;;16.40;96859.00;;;;8301957;28;20233;-69
2023/05/08 07:24:39;;;;;;;14.88;9.32;;;;;16.80;96866.00;;;;8295504;28;20194;-68
2023/05/08 07:28:42;;;;;;;12.18;9.55;;;;;17.50;96867.00;;;;8301105;28;20240;-70
2023/05/08 07:32:47;;;;;;;13.18;9.85;;;;;18.20;96867.00;;;;8298252;28;20644;-68
2023/05/08 07:36:53;;;;;;;16.42;9.15;;;;;19.10;96868.00;;;;8297563;28;20198;-69
2023/05/08 07:40:58;;;;;;;12.43;9.43;;;;;19.90;96879.00;;;;8308411;28;20193;-69
2023/05/08 07:45:03;;;;;;;14.80;9.65;;;;;20.30;96885.00;;;;8296100;28;20682;-69
2023/05/08 07:49:08;;;;;;;11.45;9.48;;;;;20.40;96879.00;;;;8309114;28;20618;-69
2023/05/08 07:53:17;;;;;;;13.32;10.25;;;;;20.40;96871.00;;;;8307932;28;20194;-68
2023/05/08 07:57:20;;;;;;;12.70;10.07;;;;;20.00;96875.00;;;;8281858;28;20837;-70
2023/05/08 08:01:26;;;;;;;14.30;9.95;;;;;20.40;96876.00;;;;8306983;28;20819;-70
2023/05/08 08:05:35;;;;;;;13.60;9.77;;;;;20.60;96870.00;;;;8297838;28;20206;-70
2023/05/08 08:09:40;;;;;;;13.70;8.93;;;;;21.30;96875.00;;;;8292940;28;20209;-70
2023/05/08 08:13:45;;;;;;;13.05;9.52;;;;;21.90;96879.00;;;;8301938;28;20201;-69
2023/05/08 08:17:48;;;;;;;14.18;9.70;;;;;22.30;96884.00;;;;8305067;28;20679;-72
2023/05/08 08:21:55;;;;;;;11.55;9.18;;;;;22.50;96881.00;;;;8284266;28;20197;-69
2023/05/08 08:25:59;;;;;;;10.40;8.77;;;;;22.60;96879.00;;;;8302589;28;20204;-69
2023/05/08 08:30:06;;;;;;;14.00;9.80;;;;;22.60;96881.00;;;;8290673;28;20755;-72
2023/05/08 08:34:20;;;;;;;10.45;8.80;;;;;23.10;96872.00;;;;8308406;28;20202;-69
2023/05/08 08:38:23;;;;;;;12.85;9.82;;;;;23.20;96882.00;;;;8299576;28;20226;-71
2023/05/08 08:42:27;;;;;;;12.20;9.27;;;;;23.90;96885.00;;;;8281525;28;20197;-70
2023/05/08 08:46:32;;;;;;;11.38;9.65;;;;;23.90;96875.00;;;;8293920;28;20236;-73
2023/05/08 08:50:36;;;;;;;10.35;9.13;;;;;23.80;96871.00;;;;8276620;28;20344;-70
2023/05/08 08:54:46;;;;;;;15.18;9.85;;;;;23.50;96876.00;;;;8302700;28;20293;-70
2023/05/08 08:58:58;;;;;;;14.23;9.93;;;;;23.30;96874.00;;;;8312582;28;20225;-70
2023/05/08 09:03:06;;;;;;;11.38;9.55;;;;;23.80;96876.00;;;;8309094;28;20705;-70
2023/05/08 09:07:12;;;;;;;15.05;10.02;;;;;24.00;96881.00;;;;8302736;28;20209;-72
2023/05/08 09:11:15;;;;;;;12.23;9.60;;;;;24.80;96875.00;;;;8305975;28;20185;-71
2023/05/08 09:15:22;;;;;;;10.98;9.10;;;;;25.00;96876.00;;;;8306073;28;20718;-71
2023/05/08 09:19:28;;;;;;;11.93;9.77;;;;;25.30;96874.00;;;;8303085;28;20287;-70
2023/05/08 09:23:35;;;;;;;11.27;9.50;;;;;24.20;96873.00;;;;8301784;28;20579;-72
2023/05/08 09:27:38;;;;;;;12.30;9.15;;;;;23.90;96871.00;;;;8300630;28;20197;-72
2023/05/08 09:31:45;;;;;;;12.43;9.50;;;;;24.60;96876.00;;;;8316696;28;20221;-70
2023/05/08 09:35:49;;;;;;;12.75;9.05;;;;;25.00;96875.00;;;;8309423;28;20202;-71
2023/05/08 09:39:52;;;;;;;12.70;9.23;;;;;25.70;96872.00;;;;8303773;28;20254;-69
2023/05/08 09:44:06;;;;;;;15.05;9.32;;;;;25.90;96872.00;;;;8310598;28;20216;-71
2023/05/08 09:48:11;;;;;;;13.23;10.30;;;;;25.60;96877.00;;;;8300959;28;20740;-69
2023/05/08 09:52:15;;;;;;;10.85;9.10;;;;;25.80;96876.00;;;;8300145;28;20202;-71
2023/05/08 09:56:38;;;;;;;14.50;9.05;;;;;26.30;96876.00;;;;8296191;28;20194;-69
2023/05/08 10:00:41;;;;;;;10.10;9.00;;;;;26.80;96880.00;;;;8298622;28;20316;-72
2023/05/08 10:04:46;;;;;;;14.30;9.43;;;;;27.10;96884.00;;;;8298369;28;20623;-69
2023/05/08 10:08:49;;;;;;;16.05;10.27;;;;;27.30;96887.00;;;;8293809;28;20293;-71
2023/05/08 10:12:56;;;;;;;10.23;8.38;;;;;27.70;96879.00;;;;8303125;28;20252;-66
2023/05/08 10:17:05;;;;;;;13.68;8.65;;;;;28.30;96887.00;;;;8309057;28;20236;-68
2023/05/08 10:21:10;;;;;;;11.80;9.00;;;;;28.40;96884.00;;;;8302804;28;20233;-68
2023/05/08 10:25:16;;;;;;;8.85;7.95;;;;;28.70;96874.00;;;;8291613;28;20275;-70
2023/05/08 10:29:25;;;;;;;11.43;8.45;;;;;29.00;96875.00;;;;8289978;28;20202;-70
2023/05/08 10:33:30;;;;;;;10.73;8.75;;;;;29.40;96870.00;;;;8290747;28;20206;-69
2023/05/08 10:37:40;;;;;;;9.50;8.50;;;;;29.70;96870.00;;;;8282608;28;20252;-71
2023/05/08 10:41:48;;;;;;;9.40;8.18;;;;;29.00;96871.00;;;;8301137;28;20237;-69
2023/05/08 10:45:52;;;;;;;8.38;7.45;;;;;29.00;96865.00;;;;8294236;28;20202;-70
2023/05/08 10:50:01;;;;;;;8.05;7.25;;;;;29.10;96867.00;;;;8299894;28;20205;-68
2023/05/08 10:54:12;;;;;;;8.80;7.05;;;;;28.80;96858.00;;;;8295764;28;20209;-68
2023/05/08 10:58:30;;;;;;;10.57;7.90;;;;;28.20;96861.00;;;;8303493;28;20241;-68
2023/05/08 11:02:35;;;;;;;10.90;7.55;;;;;28.20;96858.00;;;;8303691;28;20232;-70
2023/05/08 11:06:45;;;;;;;8.80;7.57;;;;;28.00;96857.00;;;;8300130;28;20205;-68
2023/05/08 11:11:00;;;;;;;10.05;8.52;;;;;28.00;96852.00;;;;8299392;28;20213;-68
2023/05/08 11:15:10;;;;;;;9.82;8.77;;;;;27.30;96851.00;;;;8294649;28;20233;-68
2023/05/08 11:19:17;;;;;;;9.45;7.97;;;;;26.90;96853.00;;;;8301124;28;20219;-68
2023/05/08 11:23:24;;;;;;;8.23;7.40;;;;;26.20;96860.00;;;;8290432;28;20198;-70
2023/05/08 11:27:53;;;;;;;8.57;7.68;;;;;25.70;96855.00;;;;8302858;28;20198;-68
2023/05/08 11:32:00;;;;;;;11.52;7.80;;;;;25.10;96849.00;;;;8302763;28;20726;-69
2023/05/08 11:36:15;;;;;;;9.95;7.93;;;;;24.80;96850.00;;;;8295960;28;20858;-69
2023/05/08 11:40:47;;;;;;;10.32;7.47;;;;;24.70;96842.00;;;;8304206;28;20256;-69
2023/05/08 11:45:04;;;;;;;8.63;7.18;;;;;24.80;96841.00;;;;8298223;28;20202;-68
2023/05/08 11:49:12;;;;;;;9.52;7.65;;;;;25.00;96830.00;;;;8303808;28;20198;-69
2023/05/08 12:19:04;;;;;;;7.47;6.70;;;;;22.70;96854.00;;;;8374887;28;20583;-68
2023/05/08 12:23:09;;;;;;;9.20;7.18;;;;;22.30;96854.00;;;;8339002;28;20295;-68
2023/05/08 12:27:15;;;;;;;8.32;7.30;;;;;22.10;96857.00;;;;8349239;28;20291;-68
2023/05/08 12:31:22;;;;;;;9.88;7.22;;;;;21.70;96855.00;;;;8348210;28;20200;-69
2023/05/08 12:35:32;;;;;;;8.32;6.72;;;;;21.40;96853.00;;;;8334769;28;20288;-72
2023/05/08 12:39:36;;;;;;;7.70;6.85;;;;;21.30;96852.00;;;;8342947;28;20656;-70
2023/05/08 12:43:41;;;;;;;8.20;6.97;;;;;21.00;96854.00;;;;8339053;28;20228;-70
2023/05/08 12:47:48;;;;;;;9.73;7.05;;;;;21.00;96847.00;;;;8343743;28;20475;-69
2023/05/08 12:52:05;;;;;;;10.05;7.13;;;;;20.90;96857.00;;;;8343512;28;20207;-70
2023/05/08 12:56:09;;;;;;;9.93;6.50;;;;;20.90;96856.00;;;;8342456;28;20204;-70
2023/05/08 13:00:18;;;;;;;8.32;7.00;;;;;20.80;96860.00;;;;8344023;28;20197;-69
2023/05/08 13:04:29;;;;;;;8.25;7.28;;;;;20.80;96856.00;;;;8345017;28;20193;-69
2023/05/08 13:08:37;;;;;;;8.63;6.30;;;;;20.70;96850.00;;;;8338764;28;20228;-72
2023/05/08 13:12:41;;;;;;;10.43;6.10;;;;;20.70;96853.00;;;;8335291;28;20201;-71
2023/05/08 13:16:44;;;;;;;9.65;6.30;;;;;20.70;96852.00;;;;8334923;28;20294;-70
2023/05/08 13:20:47;;;;;;;14.40;7.68;;;;;20.80;96851.00;;;;8320225;28;20271;-72
2023/05/08 13:24:52;;;;;;;8.57;7.30;;;;;20.80;96851.00;;;;8317538;28;20206;-70
2023/05/08 13:28:55;;;;;;;12.43;7.13;;;;;20.60;96848.00;;;;8318849;28;20287;-70
2023/05/08 13:32:58;;;;;;;8.20;6.75;;;;;20.50;96842.00;;;;8318366;28;20239;-70
2023/05/08 13:37:04;;;;;;;8.13;7.15;;;;;20.50;96839.00;;;;8317857;28;20201;-69
2023/05/08 13:41:09;;;;;;;7.65;6.35;;;;;20.60;96836.00;;;;8314481;28;20248;-72
2023/05/08 13:45:14;;;;;;;9.75;6.75;;;;;20.80;96830.00;;;;8316207;28;20256;-69
2023/05/08 13:49:23;;;;;;;8.93;6.13;;;;;21.00;96827.00;;;;8315920;28;20197;-70
2023/05/08 13:53:26;;;;;;;8.45;6.03;;;;;21.30;96824.00;;;;8317868;28;20651;-70
2023/05/08 13:57:31;;;;;;;6.35;5.72;;;;;21.50;96830.00;;;;8314243;28;20201;-72
2023/05/08 14:01:37;;;;;;;9.63;6.95;;;;;21.40;96826.00;;;;8314453;28;20201;-71
2023/05/08 14:05:40;;;;;;;8.18;7.05;;;;;21.30;96832.00;;;;8308676;28;20657;-70
2023/05/08 14:09:44;;;;;;;8.73;6.97;;;;;21.20;96828.00;;;;8314996;28;20252;-72
2023/05/08 14:13:48;;;;;;;9.38;6.93;;;;;21.10;96828.00;;;;8312206;28;20208;-71
2023/05/08 14:17:51;;;;;;;9.68;7.20;;;;;21.10;96834.00;;;;8314686;28;20209;-70
2023/05/08 14:21:59;;;;;;;7.85;6.55;;;;;20.90;96823.00;;;;8310564;28;20249;-69
2023/05/08 14:26:04;;;;;;;7.85;6.72;;;;;21.00;96818.00;;;;8304754;28;20238;-70
2023/05/08 14:30:13;;;;;;;10.10;6.80;;;;;20.90;96818.00;;;;8309190;28;20197;-70
2023/05/08 14:34:17;;;;;;;9.85;6.53;;;;;20.80;96822.00;;;;8315827;28;20296;-71
2023/05/08 14:38:20;;;;;;;9.75;6.82;;;;;20.80;96829.00;;;;8311222;28;20208;-70
2023/05/08 14:42:32;;;;;;;11.63;6.97;;;;;20.60;96829.00;;;;8316525;28;20198;-71
2023/05/08 14:46:37;;;;;;;8.38;7.03;;;;;20.40;96818.00;;;;8315768;28;20754;-70
2023/05/08 14:50:42;;;;;;;10.23;6.82;;;;;20.30;96816.00;;;;8308757;28;20198;-72
2023/05/08 14:54:51;;;;;;;11.07;6.70;;;;;20.20;96810.00;;;;8301745;28;20275;-71
2023/05/08 14:59:21;;;;;;;8.07;6.53;;;;;20.30;96809.00;;;;8308801;28;20247;-71
2023/05/08 15:03:26;;;;;;;7.32;6.30;;;;;20.10;96812.00;;;;8317815;28;20220;-70
2023/05/08 15:07:33;;;;;;;7.55;6.55;;;;;19.90;96811.00;;;;8312420;28;20233;-70
2023/05/08 15:11:41;;;;;;;10.95;7.47;;;;;19.70;96805.00;;;;8315613;28;20193;-70
2023/05/08 15:15:47;;;;;;;8.63;6.70;;;;;19.50;96812.00;;;;8308116;28;20217;-69
2023/05/08 15:19:53;;;;;;;8.38;6.38;;;;;19.50;96807.00;;;;8313075;28;20204;-70
2023/05/08 15:23:58;;;;;;;10.10;7.22;;;;;19.40;96810.00;;;;8311015;28;20205;-70
2023/05/08 15:28:03;;;;;;;8.43;6.25;;;;;19.30;96805.00;;;;8312316;28;20225;-70
2023/05/08 15:32:06;;;;;;;12.48;7.03;;;;;19.30;96811.00;;;;8315895;28;20228;-70
2023/05/08 15:36:12;;;;;;;13.60;7.22;;;;;19.20;96810.00;;;;8313509;28;20214;-68
2023/05/08 15:40:22;;;;;;;8.63;6.97;;;;;19.20;96812.00;;;;8308858;28;20263;-68
2023/05/08 15:44:28;;;;;;;7.03;6.13;;;;;19.20;96807.00;;;;8316181;28;20198;-67
2023/05/08 15:48:54;;;;;;;7.88;6.53;;;;;19.30;96817.00;;;;8303991;28;20287;-69
2023/05/08 15:52:58;;;;;;;8.43;6.65;;;;;19.20;96807.00;;;;8310320;28;20209;-69
2023/05/08 15:57:04;;;;;;;7.85;6.50;;;;;19.20;96805.00;;;;8312138;28;20283;-68
2023/05/08 16:01:08;;;;;;;7.07;6.38;;;;;19.30;96805.00;;;;8314768;28;20194;-67
2023/05/08 16:05:11;;;;;;;7.93;6.40;;;;;19.30;96796.00;;;;8305445;28;20638;-69
2023/05/08 16:09:20;;;;;;;7.47;5.70;;;;;19.40;96805.00;;;;8313898;28;20233;-67
2023/05/08 16:13:23;;;;;;;9.25;6.40;;;;;19.50;96799.00;;;;8312542;28;20193;-69
2023/05/08 16:17:26;;;;;;;9.70;6.63;;;;;19.60;96801.00;;;;8307291;28;20198;-66
2023/05/08 16:21:30;;;;;;;7.60;5.90;;;;;19.60;96796.00;;;;8314015;28;20286;-66
2023/05/08 16:25:35;;;;;;;5.82;5.25;;;;;19.50;96792.00;;;;8310679;28;20201;-66
2023/05/08 16:29:45;;;;;;;7.15;5.53;;;;;19.50;96786.00;;;;8314023;28;20225;-66
2023/05/08 16:33:50;;;;;;;6.38;5.20;;;;;19.70;96792.00;;;;8305313;28;20265;-68
2023/05/08 16:37:53;;;;;;;9.55;5.93;;;;;19.70;96794.00;;;;8304458;28;20247;-66
2023/05/08 16:42:00;;;;;;;6.47;4.80;;;;;19.90;96788.00;;;;8311238;28;20739;-67
2023/05/08 16:46:05;;;;;;;7.40;5.68;;;;;20.20;96784.00;;;;8315487;28;20201;-68
2023/05/08 16:50:09;;;;;;;5.00;4.50;;;;;20.60;96794.00;;;;8311523;28;20233;-68
2023/05/08 16:54:15;;;;;;;5.45;4.95;;;;;21.30;96783.00;;;;8311588;28;20206;-67
2023/05/08 16:58:24;;;;;;;6.15;4.97;;;;;21.80;96789.00;;;;8315473;28;21086;-68
2023/05/08 17:02:29;;;;;;;8.15;5.32;;;;;21.90;96795.00;;;;8313706;28;20259;-66
2023/05/08 17:06:32;;;;;;;5.32;4.82;;;;;21.70;96794.00;;;;8312615;28;20302;-67
2023/05/08 17:10:36;;;;;;;5.90;4.80;;;;;21.60;96801.00;;;;8308745;28;20197;-68
2023/05/08 17:14:41;;;;;;;5.93;5.32;;;;;21.40;96797.00;;;;8315761;28;20280;-68
2023/05/08 17:18:45;;;;;;;5.90;5.30;;;;;21.10;96803.00;;;;8312700;28;20255;-68
2023/05/08 17:22:48;;;;;;;6.45;4.88;;;;;20.80;96795.00;;;;8319751;28;20199;-68
2023/05/08 17:26:53;;;;;;;7.07;5.07;;;;;20.40;96798.00;;;;8319846;28;20687;-68
2023/05/08 17:30:58;;;;;;;5.30;4.80;;;;;20.10;96802.00;;;;8320156;28;20212;-68
2023/05/08 17:35:01;;;;;;;5.18;4.68;;;;;19.90;96801.00;;;;8312733;28;20912;-69
2023/05/08 17:39:04;;;;;;;5.72;4.15;;;;;19.70;96802.00;;;;8315043;28;20634;-68
2023/05/08 17:43:16;;;;;;;5.15;4.68;;;;;19.50;96801.00;;;;8316974;28;20198;-68
2023/05/08 17:47:23;;;;;;;11.02;4.95;;;;;19.30;96809.00;;;;8319251;28;20252;-68
2023/05/08 17:51:26;;;;;;;4.93;4.53;;;;;19.20;96815.00;;;;8308411;28;20308;-67
2023/05/08 17:55:30;;;;;;;4.90;4.47;;;;;19.10;96813.00;;;;8315758;28;20201;-69
2023/05/08 17:59:37;;;;;;;6.57;4.43;;;;;19.00;96818.00;;;;8323934;28;20201;-68
2023/05/08 18:04:01;;;;;;;8.05;4.45;;;;;18.80;96826.00;;;;8314869;28;20202;-68
2023/05/08 18:08:06;;;;;;;4.75;4.25;;;;;18.70;96825.00;;;;8303149;28;21169;-68
2023/05/08 18:12:11;;;;;;;5.05;4.40;;;;;18.70;96832.00;;;;8316457;28;20201;-67
2023/05/08 18:16:16;;;;;;;5.53;4.70;;;;;18.50;96824.00;;;;8320538;28;20205;-68
2023/05/08 18:20:22;;;;;;;4.85;4.35;;;;;18.40;96827.00;;;;8313868;28;20197;-67
2023/05/08 18:24:29;;;;;;;6.30;5.05;;;;;18.30;96818.00;;;;8309588;28;20198;-66
2023/05/08 18:28:32;;;;;;;5.20;4.70;;;;;18.10;96823.00;;;;8321653;28;20263;-67
2023/05/08 18:32:38;;;;;;;7.85;4.93;;;;;18.00;96828.00;;;;8323320;28;20272;-66
2023/05/08 18:36:42;;;;;;;7.25;5.45;;;;;17.90;96825.00;;;;8326829;28;20194;-67
2023/05/08 18:40:48;;;;;;;4.60;4.10;;;;;17.70;96827.00;;;;8322620;28;20226;-67
2023/05/08 18:44:52;;;;;;;5.57;4.60;;;;;17.70;96835.00;;;;8313657;28;20271;-67
2023/05/08 18:48:55;;;;;;;8.52;6.22;;;;;17.60;96831.00;;;;8318405;28;20229;-66
2023/05/08 18:53:01;;;;;;;8.18;6.07;;;;;17.40;96836.00;;;;8321321;28;20249;-67
2023/05/08 18:57:08;;;;;;;9.63;6.35;;;;;17.20;96850.00;;;;8323499;28;20232;-67
2023/05/08 19:01:11;;;;;;;10.35;6.20;;;;;17.00;96845.00;;;;8303201;28;20217;-68
2023/05/08 19:05:17;;;;;;;7.80;6.07;;;;;16.80;96852.00;;;;8307041;28;20722;-68
2023/05/08 19:09:27;;;;;;;7.97;6.05;;;;;16.60;96846.00;;;;8308763;28;20898;-69
2023/05/08 19:13:38;;;;;;;7.18;5.70;;;;;16.40;96854.00;;;;8312910;28;20207;-68
2023/05/08 19:17:45;;;;;;;9.10;5.80;;;;;16.30;96851.00;;;;8312568;28;20246;-68
2023/05/08 19:21:49;;;;;;;8.40;5.75;;;;;16.10;96851.00;;;;8311218;28;20201;-69
2023/05/08 19:26:00;;;;;;;6.40;5.65;;;;;15.90;96847.00;;;;8309435;28;20252;-67
2023/05/08 19:30:05;;;;;;;6.00;5.40;;;;;15.80;96848.00;;;;8313792;28;20272;-68
2023/05/08 19:34:10;;;;;;;9.95;5.60;;;;;15.70;96850.00;;;;8300554;28;20393;-69
2023/05/08 19:38:13;;;;;;;6.20;5.43;;;;;15.50;96848.00;;;;8309189;28;20204;-69
2023/05/08 19:42:17;;;;;;;6.85;5.25;;;;;15.40;96845.00;;;;8312223;28;20205;-67
2023/05/08 19:46:20;;;;;;;6.70;5.60;;;;;15.30;96851.00;;;;8304265;28;20197;-67
2023/05/08 19:50:24;;;;;;;5.13;4.60;;;;;15.20;96859.00;;;;8311387;28;20232;-67
2023/05/08 19:54:30;;;;;;;4.93;4.43;;;;;15.20;96856.00;;;;8309982;28;20690;-67
2023/05/08 19:58:37;;;;;;;6.78;4.43;;;;;15.20;96853.00;;;;8312136;28;20206;-66
2023/05/08 20:02:40;;;;;;;7.53;4.35;;;;;15.20;96853.00;;;;8308246;28;20910;-67
2023/05/08 20:06:43;;;;;;;5.32;4.30;;;;;15.20;96849.00;;;;8310589;28;20228;-67
2023/05/08 20:10:52;;;;;;;5.60;5.00;;;;;15.10;96847.00;;;;8313432;28;20297;-67
2023/05/08 20:14:57;;;;;;;6.78;5.03;;;;;15.10;96846.00;;;;8311078;28;20255;-66
2023/05/08 20:19:06;;;;;;;5.30;4.80;;;;;15.10;96854.00;;;;8290949;28;20196;-66
2023/05/08 20:23:11;;;;;;;4.68;4.28;;;;;15.00;96851.00;;;;8311116;28;20275;-66
2023/05/08 20:27:16;;;;;;;5.53;4.75;;;;;15.10;96851.00;;;;8311352;28;20914;-67
2023/05/08 20:31:36;;;;;;;7.47;5.22;;;;;15.00;96843.00;;;;8314404;28;20245;-66
2023/05/08 20:35:44;;;;;;;6.68;5.65;;;;;15.00;96849.00;;;;8319535;28;20717;-67
2023/05/08 20:39:48;;;;;;;6.82;5.15;;;;;15.00;96839.00;;;;8321597;28;20243;-67
2023/05/08 20:43:54;;;;;;;5.72;5.13;;;;;15.00;96834.00;;;;8320376;28;20197;-67
2023/05/08 20:47:59;;;;;;;8.32;5.65;;;;;14.90;96836.00;;;;8306666;28;20763;-67
2023/05/08 20:52:05;;;;;;;6.70;5.25;;;;;14.90;96833.00;;;;8316994;28;20296;-67